Time;durP1;ratioP1;P1;durP2;ratioP2;P2;SDS_P1;SDS_P2;PMS_P1;PMS_P2;Temp;Humidity;BMP_temperature;BMP_pressure;BME280_temperature;BME280_humidity;BME280_pressure;Samples;Min_cycle;Max_cycle;Signal;HPM_P1;HPM_P2
2021/03/01 00:00:29;;;;;;;3.42;3.13;;;14.20;52.20;;;;;;5098024;28;20047;-77
2021/03/01 00:02:56;;;;;;;3.08;2.78;;;14.20;52.20;;;;;;5116132;28;20039;-77
2021/03/01 00:05:22;;;;;;;2.80;2.60;;;14.20;52.30;;;;;;5108966;28;20115;-79
2021/03/01 00:07:49;;;;;;;3.53;3.03;;;14.20;52.40;;;;;;5098577;28;20062;-77
2021/03/01 00:10:16;;;;;;;3.33;2.90;;;14.20;52.40;;;;;;5107687;28;20043;-77
2021/03/01 00:12:43;;;;;;;3.17;2.88;;;14.10;52.20;;;;;;5117969;28;20463;-77
2021/03/01 00:15:12;;;;;;;3.30;3.00;;;14.10;52.30;;;;;;5110795;28;20051;-78
2021/03/01 00:17:38;;;;;;;3.67;3.30;;;14.10;52.40;;;;;;5107818;28;20078;-80
2021/03/01 00:20:06;;;;;;;3.47;2.97;;;14.10;52.40;;;;;;5116600;28;20040;-78
2021/03/01 00:22:32;;;;;;;3.30;3.00;;;14.00;52.50;;;;;;5118551;28;20066;-78
2021/03/01 00:24:58;;;;;;;3.10;2.78;;;14.00;52.60;;;;;;5094152;28;20040;-77
2021/03/01 00:27:24;;;;;;;3.22;2.90;;;14.00;52.60;;;;;;5079918;28;20051;-76
2021/03/01 00:29:50;;;;;;;2.95;2.65;;;14.00;52.60;;;;;;5098980;28;20051;-77
2021/03/01 00:32:15;;;;;;;2.65;2.45;;;14.00;52.70;;;;;;5108887;28;20444;-75
2021/03/01 00:34:41;;;;;;;3.35;2.95;;;13.90;52.50;;;;;;5115408;28;20036;-76
2021/03/01 00:37:07;;;;;;;2.85;2.40;;;13.90;52.50;;;;;;5117904;28;20059;-77
2021/03/01 00:39:33;;;;;;;3.10;2.80;;;13.90;52.60;;;;;;5112047;28;20505;-78
2021/03/01 00:42:00;;;;;;;3.55;3.08;;;13.90;52.60;;;;;;5097374;28;20040;-77
2021/03/01 00:44:26;;;;;;;3.22;2.88;;;13.90;52.80;;;;;;5098081;28;20204;-77
2021/03/01 00:46:51;;;;;;;3.70;2.90;;;13.90;52.90;;;;;;5117492;28;20453;-77
2021/03/01 00:49:17;;;;;;;3.13;2.83;;;13.90;52.80;;;;;;5118117;28;20065;-77
2021/03/01 00:51:43;;;;;;;3.58;3.28;;;13.80;52.80;;;;;;5105138;28;20048;-76
2021/03/01 00:54:09;;;;;;;3.17;2.88;;;13.80;52.80;;;;;;5097826;28;20048;-76
2021/03/01 00:56:35;;;;;;;3.88;3.13;;;13.80;52.80;;;;;;5117715;28;20044;-77
2021/03/01 00:59:01;;;;;;;3.22;2.92;;;13.80;52.80;;;;;;5117919;28;20058;-78
2021/03/01 01:01:27;;;;;;;3.10;2.85;;;13.80;52.90;;;;;;5117618;28;20428;-76
2021/03/01 01:03:52;;;;;;;3.80;3.50;;;13.80;52.80;;;;;;5117202;28;20043;-77
2021/03/01 01:06:19;;;;;;;3.65;3.28;;;13.70;52.80;;;;;;5115193;28;20459;-79
2021/03/01 01:08:45;;;;;;;3.88;3.45;;;13.70;52.90;;;;;;5117291;28;20414;-76
2021/03/01 01:11:12;;;;;;;3.80;3.35;;;13.80;53.10;;;;;;5117610;28;20081;-76
2021/03/01 01:13:38;;;;;;;4.32;3.38;;;13.70;53.00;;;;;;5117354;28;20115;-80
2021/03/01 01:16:04;;;;;;;3.90;3.50;;;13.70;53.00;;;;;;5115325;28;20469;-79
2021/03/01 01:18:30;;;;;;;3.92;3.53;;;13.70;53.10;;;;;;5117036;28;20464;-77
2021/03/01 01:20:56;;;;;;;4.22;3.83;;;13.70;53.20;;;;;;5115814;28;20046;-77
2021/03/01 01:23:21;;;;;;;3.97;3.58;;;13.70;53.20;;;;;;5117235;28;20075;-77
2021/03/01 01:25:47;;;;;;;4.13;3.72;;;13.70;53.20;;;;;;5114850;28;20058;-77
2021/03/01 01:28:13;;;;;;;4.32;3.92;;;13.70;53.30;;;;;;5116506;28;20236;-77
2021/03/01 01:30:39;;;;;;;4.00;3.60;;;13.70;53.30;;;;;;5117030;28;20047;-77
2021/03/01 01:33:05;;;;;;;5.03;4.13;;;13.70;53.20;;;;;;5105787;28;20104;-77
2021/03/01 01:35:31;;;;;;;4.07;3.67;;;13.70;53.10;;;;;;5115036;28;20035;-76
2021/03/01 01:37:57;;;;;;;4.75;4.28;;;13.70;53.00;;;;;;5117628;28;20039;-77
2021/03/01 01:40:23;;;;;;;4.05;3.60;;;13.70;52.90;;;;;;5107019;28;20040;-77
2021/03/01 01:42:50;;;;;;;4.47;3.95;;;13.70;52.90;;;;;;5096829;28;20067;-80
2021/03/01 01:45:20;;;;;;;4.47;3.58;;;13.70;52.80;;;;;;5105170;28;20058;-78
2021/03/01 01:47:48;;;;;;;3.58;3.28;;;13.70;52.80;;;;;;5116908;28;20426;-78
2021/03/01 01:50:15;;;;;;;3.65;3.35;;;13.70;52.70;;;;;;5113848;28;20036;-79
2021/03/01 01:52:41;;;;;;;3.45;2.97;;;13.70;52.70;;;;;;5116520;28;20039;-79
2021/03/01 01:55:09;;;;;;;3.85;3.40;;;13.70;52.80;;;;;;5109113;28;20448;-77
2021/03/01 01:57:36;;;;;;;5.03;3.38;;;13.70;52.80;;;;;;5095831;28;20330;-77
2021/03/01 02:00:21;;;;;;;3.38;3.05;;;13.60;52.90;;;;;;5095296;28;20479;-76
2021/03/01 02:02:54;;;;;;;2.50;2.30;;;13.60;52.80;;;;;;5096231;28;20044;-76
2021/03/01 02:05:22;;;;;;;2.75;2.50;;;13.60;52.80;;;;;;5105400;28;20035;-78
2021/03/01 02:07:56;;;;;;;3.05;2.28;;;13.60;52.90;;;;;;5115652;28;20035;-80
2021/03/01 02:10:45;;;;;;;2.58;2.35;;;13.60;52.90;;;;;;5115984;28;20447;-75
2021/03/01 02:13:11;;;;;;;2.60;2.35;;;13.50;52.80;;;;;;5109857;28;20048;-75
2021/03/01 02:15:56;;;;;;;2.55;1.98;;;13.50;52.90;;;;;;5096872;28;20413;-78
2021/03/01 02:18:22;;;;;;;2.05;1.73;;;13.50;52.90;;;;;;5109656;28;20119;-77
2021/03/01 02:20:48;;;;;;;2.40;2.15;;;13.50;52.90;;;;;;5103236;28;20440;-77
2021/03/01 02:23:16;;;;;;;2.65;2.30;;;13.40;52.80;;;;;;5095967;28;20043;-77
2021/03/01 02:25:48;;;;;;;2.83;2.53;;;13.40;52.80;;;;;;5095971;28;20496;-77
2021/03/01 02:28:15;;;;;;;2.38;2.15;;;13.40;52.90;;;;;;5095846;28;20468;-77
2021/03/01 02:30:52;;;;;;;3.58;2.88;;;13.30;53.00;;;;;;5095934;28;20054;-77
2021/03/01 02:33:22;;;;;;;3.47;2.45;;;13.30;53.10;;;;;;5095581;28;20048;-76
2021/03/01 02:35:53;;;;;;;2.95;2.53;;;13.30;53.10;;;;;;5096849;28;20055;-78
2021/03/01 02:38:22;;;;;;;2.95;2.30;;;13.30;53.20;;;;;;5098204;28;20036;-78
2021/03/01 02:40:49;;;;;;;2.95;2.58;;;13.20;53.10;;;;;;5105833;28;20109;-77
2021/03/01 02:43:17;;;;;;;2.90;2.60;;;13.20;53.10;;;;;;5110532;28;20063;-76
2021/03/01 02:45:45;;;;;;;2.88;2.50;;;13.20;53.20;;;;;;5115412;28;20340;-80
2021/03/01 02:48:12;;;;;;;2.95;2.42;;;13.20;53.30;;;;;;5114115;28;20055;-77
2021/03/01 02:50:39;;;;;;;3.42;2.88;;;13.10;53.30;;;;;;5115645;28;20495;-77
2021/03/01 02:53:06;;;;;;;3.83;2.67;;;13.10;53.30;;;;;;5116373;28;20047;-77
2021/03/01 02:55:34;;;;;;;2.55;2.33;;;13.10;53.40;;;;;;5115809;28;20491;-77
2021/03/01 02:58:00;;;;;;;3.17;2.67;;;13.10;53.40;;;;;;5115214;28;20059;-78
2021/03/01 03:00:26;;;;;;;2.90;2.50;;;13.10;53.50;;;;;;5113722;28;20475;-78
2021/03/01 03:02:53;;;;;;;2.42;2.20;;;13.10;53.40;;;;;;5115656;28;20080;-76
2021/03/01 03:05:19;;;;;;;3.20;2.78;;;13.10;53.50;;;;;;5115774;28;20058;-76
2021/03/01 03:07:48;;;;;;;2.47;2.03;;;13.10;53.50;;;;;;5115668;28;20039;-76
2021/03/01 03:10:15;;;;;;;2.50;2.30;;;13.10;53.40;;;;;;5112965;28;20039;-77
2021/03/01 03:12:43;;;;;;;3.33;2.65;;;13.00;53.40;;;;;;5119693;28;20047;-76
2021/03/01 03:15:14;;;;;;;2.33;2.00;;;13.00;53.40;;;;;;5118106;28;20074;-77
2021/03/01 03:17:41;;;;;;;2.47;2.10;;;13.00;53.40;;;;;;5119493;28;20465;-77
2021/03/01 03:20:08;;;;;;;3.03;2.50;;;13.00;53.40;;;;;;5097497;28;20126;-78
2021/03/01 03:22:34;;;;;;;2.88;2.08;;;13.00;53.40;;;;;;5099124;28;20044;-77
2021/03/01 03:25:02;;;;;;;2.05;1.83;;;13.00;53.50;;;;;;5100080;28;20134;-78
2021/03/01 03:27:28;;;;;;;2.67;2.20;;;13.00;53.50;;;;;;5098863;28;20040;-76
2021/03/01 03:29:53;;;;;;;3.08;2.17;;;13.00;53.50;;;;;;5113328;28;20345;-77
2021/03/01 03:32:19;;;;;;;2.17;1.83;;;12.90;53.50;;;;;;5119630;28;20059;-79
2021/03/01 03:34:45;;;;;;;2.13;1.60;;;13.00;53.60;;;;;;5118790;28;20446;-78
2021/03/01 03:37:21;;;;;;;1.83;1.50;;;13.00;53.50;;;;;;5101868;28;20055;-76
2021/03/01 03:39:50;;;;;;;2.00;1.75;;;13.00;53.30;;;;;;5116568;28;20408;-77
2021/03/01 03:42:23;;;;;;;1.92;1.70;;;13.00;53.20;;;;;;5118414;28;20070;-77
2021/03/01 03:44:54;;;;;;;1.98;1.70;;;13.00;53.20;;;;;;5118815;28;20136;-78
2021/03/01 03:47:23;;;;;;;1.50;1.30;;;13.00;53.20;;;;;;5119186;28;20368;-77
2021/03/01 03:49:53;;;;;;;1.60;1.48;;;13.00;53.10;;;;;;5104257;28;20036;-77
2021/03/01 03:52:24;;;;;;;1.85;1.45;;;13.00;53.10;;;;;;5098968;28;20127;-77
2021/03/01 03:54:51;;;;;;;1.40;1.00;;;13.00;53.10;;;;;;5099691;28;20066;-76
2021/03/01 03:57:22;;;;;;;1.25;1.08;;;13.00;53.00;;;;;;5098564;28;20128;-78
2021/03/01 03:59:50;;;;;;;1.88;1.50;;;13.00;52.90;;;;;;5098379;28;20048;-78
2021/03/01 04:02:19;;;;;;;1.95;1.50;;;12.90;52.90;;;;;;5110723;28;20035;-76
2021/03/01 04:04:46;;;;;;;1.45;1.35;;;13.00;52.90;;;;;;5118380;28;20050;-77
2021/03/01 04:07:13;;;;;;;1.38;1.13;;;12.90;53.00;;;;;;5118557;28;20051;-79
2021/03/01 04:09:43;;;;;;;1.80;1.30;;;12.90;53.10;;;;;;5112662;28;20056;-76
2021/03/01 04:12:11;;;;;;;1.95;1.55;;;12.90;53.10;;;;;;5099008;28;20147;-76
2021/03/01 04:14:39;;;;;;;1.70;1.40;;;12.90;53.10;;;;;;5098534;28;20077;-78
2021/03/01 04:17:12;;;;;;;2.35;1.77;;;12.90;53.30;;;;;;5101072;28;20056;-75
2021/03/01 04:19:39;;;;;;;2.27;1.57;;;12.90;53.30;;;;;;5118584;28;20040;-77
2021/03/01 04:22:06;;;;;;;2.17;1.83;;;12.80;53.40;;;;;;5112743;28;20286;-77
2021/03/01 04:24:35;;;;;;;1.70;1.30;;;12.80;53.40;;;;;;5110416;28;20063;-76
2021/03/01 04:27:03;;;;;;;2.20;1.75;;;12.80;53.50;;;;;;5117831;28;20074;-81
2021/03/01 04:29:30;;;;;;;2.05;1.70;;;12.80;53.60;;;;;;5117117;28;20054;-77
2021/03/01 04:31:58;;;;;;;1.90;1.67;;;12.80;53.60;;;;;;5098736;28;20054;-76
2021/03/01 04:34:25;;;;;;;1.80;1.63;;;12.80;53.70;;;;;;5098653;28;20101;-77
2021/03/01 04:36:52;;;;;;;2.45;1.80;;;12.80;53.80;;;;;;5098075;28;20040;-79
2021/03/01 04:39:18;;;;;;;2.65;1.63;;;12.80;53.80;;;;;;5097928;28;20115;-81
2021/03/01 04:41:46;;;;;;;2.38;2.17;;;12.70;53.80;;;;;;5097867;28;20048;-77
2021/03/01 04:44:15;;;;;;;1.88;1.58;;;12.70;53.90;;;;;;5110939;28;20067;-77
2021/03/01 04:46:52;;;;;;;2.00;1.60;;;12.70;53.90;;;;;;5118042;28;20044;-76
2021/03/01 04:49:18;;;;;;;3.40;1.85;;;12.70;54.00;;;;;;5116317;28;20051;-76
2021/03/01 04:51:44;;;;;;;1.95;1.50;;;12.60;54.10;;;;;;5101443;28;20048;-76
2021/03/01 04:54:11;;;;;;;2.10;1.55;;;12.70;54.20;;;;;;5110131;28;20112;-76
2021/03/01 04:56:45;;;;;;;2.10;1.75;;;12.60;54.20;;;;;;5117860;28;20043;-76
2021/03/01 04:59:16;;;;;;;2.10;1.75;;;12.60;54.30;;;;;;5100807;28;20048;-78
2021/03/01 05:01:43;;;;;;;1.85;1.30;;;12.60;54.40;;;;;;5096906;28;20120;-76
2021/03/01 05:04:09;;;;;;;1.77;1.42;;;12.60;54.40;;;;;;5098097;28;20051;-77
2021/03/01 05:06:37;;;;;;;2.20;1.85;;;12.60;54.50;;;;;;5097832;28;20052;-76
2021/03/01 05:09:04;;;;;;;2.20;1.73;;;12.60;54.50;;;;;;5097380;28;20062;-77
2021/03/01 05:11:33;;;;;;;2.25;1.77;;;12.60;54.60;;;;;;5097096;28;20050;-80
2021/03/01 05:14:00;;;;;;;2.75;2.08;;;12.60;54.60;;;;;;5111638;28;20055;-78
2021/03/01 05:16:27;;;;;;;2.38;1.60;;;12.60;54.60;;;;;;5117187;28;20409;-77
2021/03/01 05:18:54;;;;;;;2.35;1.77;;;12.60;54.60;;;;;;5115154;28;20075;-78
2021/03/01 05:21:20;;;;;;;2.60;2.03;;;12.60;54.70;;;;;;5117218;28;20039;-77
2021/03/01 05:23:46;;;;;;;3.05;1.83;;;12.50;54.70;;;;;;5116891;28;20440;-75
2021/03/01 05:26:13;;;;;;;2.58;1.80;;;12.60;55.30;;;;;;5116986;28;20055;-77
2021/03/01 05:28:39;;;;;;;2.78;1.75;;;12.60;54.60;;;;;;5114640;28;20035;-79
2021/03/01 05:31:05;;;;;;;2.92;1.75;;;12.60;54.60;;;;;;5117304;28;20050;-76
2021/03/01 05:33:32;;;;;;;2.47;1.80;;;12.60;54.60;;;;;;5115764;28;20046;-75
2021/03/01 05:35:58;;;;;;;2.55;1.90;;;12.50;54.70;;;;;;5116930;28;20067;-78
2021/03/01 05:38:24;;;;;;;2.53;1.80;;;12.50;54.80;;;;;;5105847;28;20075;-77
2021/03/01 05:40:49;;;;;;;3.00;1.95;;;12.50;54.80;;;;;;5096299;28;20368;-77
2021/03/01 05:43:18;;;;;;;2.47;1.90;;;12.50;54.90;;;;;;5096318;28;20119;-77
2021/03/01 05:45:45;;;;;;;3.28;2.22;;;12.50;54.80;;;;;;5096957;28;20071;-77
2021/03/01 05:48:13;;;;;;;2.85;1.92;;;12.50;54.90;;;;;;5105713;28;20100;-77
2021/03/01 05:50:41;;;;;;;2.75;1.70;;;12.50;54.90;;;;;;5116677;28;20130;-77
2021/03/01 05:53:09;;;;;;;3.05;2.10;;;12.50;55.00;;;;;;5114297;28;20110;-78
2021/03/01 05:55:36;;;;;;;3.25;2.05;;;12.50;55.20;;;;;;5116255;28;20510;-77
2021/03/01 05:58:02;;;;;;;2.47;1.40;;;12.50;55.20;;;;;;5110299;28;20040;-77
2021/03/01 06:00:29;;;;;;;3.53;2.03;;;12.50;55.10;;;;;;5105558;28;20051;-77
2021/03/01 06:02:57;;;;;;;2.97;1.70;;;12.60;55.10;;;;;;5096199;28;20040;-77
2021/03/01 06:05:24;;;;;;;3.10;1.77;;;12.60;55.10;;;;;;5095724;28;20056;-79
2021/03/01 06:07:54;;;;;;;2.90;2.10;;;12.50;55.00;;;;;;5081692;28;20063;-77
2021/03/01 06:10:20;;;;;;;3.40;1.58;;;12.50;54.90;;;;;;5103767;28;20043;-78
2021/03/01 06:12:46;;;;;;;3.00;1.80;;;12.50;54.80;;;;;;5102638;28;20040;-78
2021/03/01 06:15:15;;;;;;;5.18;1.45;;;12.60;54.70;;;;;;5116375;28;20177;-79
2021/03/01 06:17:41;;;;;;;3.55;1.55;;;12.70;54.80;;;;;;5101876;28;20160;-79
2021/03/01 06:20:09;;;;;;;4.63;1.00;;;12.70;54.90;;;;;;5095608;28;20512;-82
2021/03/01 06:22:41;;;;;;;6.88;1.90;;;12.80;55.00;;;;;;5078472;28;20457;-77
2021/03/01 06:25:16;;;;;;;5.30;1.40;;;12.90;55.50;;;;;;5084299;28;20457;-77
2021/03/01 06:27:49;;;;;;;6.18;1.58;;;13.00;55.60;;;;;;5075338;28;20047;-78
2021/03/01 06:30:16;;;;;;;2.55;0.95;;;13.10;55.80;;;;;;5099033;28;20395;-80
2021/03/01 06:32:42;;;;;;;4.20;1.38;;;13.20;55.70;;;;;;5089480;28;20036;-78
2021/03/01 06:35:29;;;;;;;1.92;0.70;;;13.30;56.10;;;;;;5057502;28;20055;-77
2021/03/01 06:38:28;;;;;;;2.55;0.60;;;13.50;56.10;;;;;;5057699;28;20072;-80
2021/03/01 06:41:25;;;;;;;3.50;0.90;;;13.60;56.50;;;;;;5075901;28;20349;-82
2021/03/01 06:43:59;;;;;;;2.22;0.90;;;13.60;57.10;;;;;;5076986;28;20454;-79
2021/03/01 06:46:29;;;;;;;2.40;0.60;;;13.70;57.10;;;;;;5072172;28;20036;-78
2021/03/01 06:48:55;;;;;;;4.82;0.65;;;13.80;57.10;;;;;;5086574;28;20060;-80
2021/03/01 06:51:22;;;;;;;5.07;0.95;;;13.90;57.20;;;;;;5057471;28;20528;-80
2021/03/01 06:54:00;;;;;;;9.00;1.05;;;14.00;57.60;;;;;;5075801;28;20403;-78
2021/03/01 06:56:42;;;;;;;5.78;1.38;;;14.10;58.00;;;;;;5076193;28;20048;-77
2021/03/01 06:59:19;;;;;;;4.75;1.20;;;14.20;57.90;;;;;;5075872;28;20037;-77
2021/03/01 07:01:53;;;;;;;6.47;1.67;;;14.30;58.20;;;;;;5075115;28;20052;-78
2021/03/01 07:04:23;;;;;;;6.35;1.08;;;14.40;58.30;;;;;;5094026;28;20036;-77
2021/03/01 07:06:50;;;;;;;3.65;0.70;;;14.50;58.60;;;;;;5095158;28;20048;-77
2021/03/01 07:09:18;;;;;;;8.10;1.05;;;14.60;58.60;;;;;;5089841;28;20514;-77
2021/03/01 07:11:45;;;;;;;6.78;1.00;;;14.70;58.50;;;;;;5076467;28;20044;-76
2021/03/01 07:14:16;;;;;;;8.88;1.33;;;14.80;58.60;;;;;;5076024;28;20363;-76
2021/03/01 07:16:51;;;;;;;4.28;1.65;;;14.90;58.70;;;;;;5074764;28;20068;-76
2021/03/01 07:19:24;;;;;;;6.05;0.90;;;14.90;57.50;;;;;;5088554;28;20131;-76
2021/03/01 07:21:52;;;;;;;7.57;1.60;;;14.90;57.50;;;;;;5085376;28;20044;-77
2021/03/01 07:24:23;;;;;;;7.93;1.45;;;14.90;57.60;;;;;;5094512;28;20046;-77
2021/03/01 07:26:50;;;;;;;7.97;1.10;;;14.90;57.60;;;;;;5094161;28;20078;-79
2021/03/01 07:29:18;;;;;;;3.80;0.70;;;14.90;57.60;;;;;;5094436;28;20048;-80
2021/03/01 07:32:08;;;;;;;5.93;0.90;;;14.90;58.00;;;;;;5094906;28;20059;-77
2021/03/01 07:34:35;;;;;;;3.70;0.63;;;15.00;58.20;;;;;;5082391;28;20082;-76
2021/03/01 07:37:02;;;;;;;3.70;0.63;;;15.00;58.30;;;;;;5093998;28;20040;-77
2021/03/01 07:39:29;;;;;;;4.50;0.60;;;15.10;58.20;;;;;;5076516;28;20047;-74
2021/03/01 07:41:56;;;;;;;2.45;0.82;;;15.10;58.10;;;;;;5094532;28;20040;-75
2021/03/01 07:44:27;;;;;;;1.50;0.40;;;15.20;58.00;;;;;;5094584;28;20047;-76
2021/03/01 07:46:54;;;;;;;2.00;0.60;;;15.20;58.00;;;;;;5094740;28;20423;-76
2021/03/01 07:49:38;;;;;;;8.65;0.90;;;15.20;58.00;;;;;;5094292;28;20109;-77
2021/03/01 07:52:04;;;;;;;4.20;0.50;;;15.20;58.00;;;;;;5093850;28;20501;-76
2021/03/01 07:54:50;;;;;;;5.88;0.70;;;15.30;58.00;;;;;;5094613;28;20052;-76
2021/03/01 07:57:16;;;;;;;3.40;0.30;;;15.30;58.10;;;;;;5096004;28;20109;-77
2021/03/01 07:59:42;;;;;;;3.20;0.40;;;15.40;58.20;;;;;;5098003;28;20166;-75
2021/03/01 08:02:18;;;;;;;3.15;0.50;;;15.40;58.30;;;;;;5093709;28;20115;-77
2021/03/01 08:04:44;;;;;;;2.63;0.40;;;15.50;58.40;;;;;;5095860;28;20059;-76
2021/03/01 08:07:10;;;;;;;3.88;0.77;;;15.50;58.50;;;;;;5093976;28;20372;-76
2021/03/01 08:09:53;;;;;;;5.53;0.60;;;15.50;58.50;;;;;;5099746;28;20072;-77
2021/03/01 08:12:28;;;;;;;2.45;0.40;;;15.60;58.50;;;;;;5094785;28;20043;-74
2021/03/01 08:14:53;;;;;;;4.40;0.40;;;15.60;58.60;;;;;;5098407;28;20047;-76
2021/03/01 08:17:25;;;;;;;1.70;0.40;;;15.60;58.70;;;;;;5090513;28;20373;-77
2021/03/01 08:19:52;;;;;;;1.88;0.50;;;15.70;58.80;;;;;;5077487;28;20052;-79
2021/03/01 08:22:18;;;;;;;2.78;0.57;;;15.70;59.10;;;;;;5061450;28;20119;-77
2021/03/01 08:24:51;;;;;;;1.17;0.40;;;15.80;59.50;;;;;;5076465;28;20116;-79
2021/03/01 08:27:39;;;;;;;3.27;0.60;;;15.80;59.60;;;;;;5076644;28;20361;-75
2021/03/01 08:30:24;;;;;;;2.15;0.85;;;15.90;59.40;;;;;;5076712;28;20040;-76
2021/03/01 08:33:16;;;;;;;1.58;0.40;;;15.90;59.50;;;;;;5075842;28;20052;-77
2021/03/01 08:35:50;;;;;;;3.15;0.60;;;15.90;59.60;;;;;;5066113;28;20063;-80
2021/03/01 08:38:37;;;;;;;5.30;0.82;;;16.00;60.30;;;;;;5060134;28;20094;-79
2021/03/01 08:41:03;;;;;;;2.70;0.75;;;16.00;60.30;;;;;;5087114;28;20049;-79
2021/03/01 08:43:38;;;;;;;2.10;0.60;;;16.10;60.40;;;;;;5075303;28;20036;-77
2021/03/01 08:46:06;;;;;;;2.33;0.45;;;16.20;60.30;;;;;;5080322;28;20494;-77
2021/03/01 08:48:39;;;;;;;5.10;0.65;;;16.20;60.30;;;;;;5075674;28;20040;-77
2021/03/01 08:51:05;;;;;;;1.73;0.38;;;16.20;60.10;;;;;;5079627;28;20044;-76
2021/03/01 08:53:31;;;;;;;3.22;0.52;;;16.20;60.00;;;;;;5085289;28;20440;-76
2021/03/01 08:55:59;;;;;;;2.20;0.50;;;16.20;59.90;;;;;;5095219;28;20050;-78
2021/03/01 08:58:33;;;;;;;6.00;1.08;;;16.30;59.90;;;;;;5077983;28;20056;-78
2021/03/01 09:01:04;;;;;;;7.75;0.60;;;16.20;59.60;;;;;;5082496;28;20089;-76
2021/03/01 09:03:33;;;;;;;4.97;0.63;;;16.20;59.70;;;;;;5095674;28;20047;-79
2021/03/01 09:06:11;;;;;;;2.72;0.50;;;16.20;59.60;;;;;;5081645;28;20055;-78
2021/03/01 09:08:45;;;;;;;4.50;0.50;;;16.20;59.60;;;;;;5077689;28;20115;-77
2021/03/01 09:11:23;;;;;;;4.28;0.60;;;16.30;59.60;;;;;;5067070;28;20054;-83
2021/03/01 09:13:54;;;;;;;4.32;0.63;;;16.30;59.40;;;;;;5072949;28;20035;-83
2021/03/01 09:16:26;;;;;;;3.80;0.73;;;16.30;59.30;;;;;;5075971;28;20044;-80
2021/03/01 09:18:57;;;;;;;4.55;0.47;;;16.40;59.30;;;;;;5098271;28;20056;-76
2021/03/01 09:21:24;;;;;;;7.90;0.85;;;16.40;59.30;;;;;;5089865;28;20047;-79
2021/03/01 09:23:54;;;;;;;2.90;0.60;;;16.40;59.30;;;;;;5096682;28;20482;-77
2021/03/01 09:26:26;;;;;;;7.32;1.55;;;16.40;59.20;;;;;;5077742;28;20036;-77
2021/03/01 09:28:55;;;;;;;8.32;1.08;;;16.50;57.90;;;;;;5083813;28;20116;-76
2021/03/01 09:31:21;;;;;;;5.47;0.65;;;16.40;58.00;;;;;;5084506;28;20032;-79
2021/03/01 09:33:49;;;;;;;4.97;0.93;;;16.40;58.30;;;;;;5092178;28;20048;-76
2021/03/01 09:36:15;;;;;;;3.75;0.75;;;16.40;58.70;;;;;;5095084;28;20456;-78
2021/03/01 09:38:42;;;;;;;7.97;0.63;;;16.50;58.50;;;;;;5093972;28;20116;-80
2021/03/01 09:41:10;;;;;;;6.07;0.70;;;16.50;58.50;;;;;;5096069;28;20474;-76
2021/03/01 09:43:38;;;;;;;7.15;0.93;;;16.50;58.50;;;;;;5095396;28;20040;-76
2021/03/01 09:46:08;;;;;;;7.18;1.05;;;16.50;58.50;;;;;;5095932;28;20446;-81
2021/03/01 09:49:01;;;;;;;5.93;0.60;;;16.50;58.50;;;;;;5095258;28;20059;-77
2021/03/01 09:51:29;;;;;;;2.97;0.60;;;16.60;58.50;;;;;;5075820;28;20395;-77
2021/03/01 09:54:03;;;;;;;3.58;0.45;;;16.60;58.80;;;;;;5091394;28;20101;-76
2021/03/01 09:56:42;;;;;;;7.22;0.90;;;16.70;58.70;;;;;;5096032;28;20032;-79
2021/03/01 09:59:08;;;;;;;10.07;1.38;;;16.80;58.60;;;;;;5078372;28;20040;-80
2021/03/01 10:01:34;;;;;;;10.80;1.50;;;16.80;58.00;;;;;;5095074;28;20040;-79
2021/03/01 10:04:00;;;;;;;10.10;1.45;;;16.90;57.40;;;;;;5077226;28;20085;-80
2021/03/01 10:06:35;;;;;;;9.32;1.20;;;16.90;57.10;;;;;;5095410;28;20036;-75
2021/03/01 10:09:10;;;;;;;10.07;1.30;;;16.90;56.60;;;;;;5094518;28;20456;-76
2021/03/01 10:11:36;;;;;;;6.13;1.33;;;16.80;56.60;;;;;;5091732;28;20449;-75
2021/03/01 10:14:07;;;;;;;6.95;1.00;;;16.80;56.50;;;;;;5095353;28;20051;-75
2021/03/01 10:16:39;;;;;;;8.82;1.75;;;16.70;56.20;;;;;;5096075;28;20161;-75
2021/03/01 10:19:18;;;;;;;8.15;2.08;;;16.60;55.30;;;;;;5115622;28;20067;-75
2021/03/01 10:21:48;;;;;;;4.60;2.22;;;16.50;53.90;;;;;;5115914;28;20048;-76
2021/03/01 10:24:16;;;;;;;6.60;2.33;;;16.40;53.00;;;;;;5100580;28;20092;-75
2021/03/01 10:26:54;;;;;;;3.33;2.35;;;16.10;52.00;;;;;;5099543;28;20040;-75
2021/03/01 10:29:41;;;;;;;4.28;2.00;;;15.80;52.10;;;;;;5075574;28;20048;-75
2021/03/01 10:32:24;;;;;;;6.65;1.80;;;15.60;53.60;;;;;;5075303;28;20444;-74
2021/03/01 10:34:52;;;;;;;5.32;1.42;;;15.60;54.10;;;;;;5074931;28;20041;-74
2021/03/01 10:37:20;;;;;;;6.30;2.20;;;15.60;54.70;;;;;;5075001;28;20091;-75
2021/03/01 10:39:47;;;;;;;5.20;1.40;;;15.60;53.70;;;;;;5074765;28;20506;-75
2021/03/01 10:42:15;;;;;;;5.13;1.13;;;15.50;54.10;;;;;;5074402;28;20044;-75
2021/03/01 10:44:51;;;;;;;13.10;2.20;;;15.50;55.00;;;;;;5074976;28;20041;-74
2021/03/01 10:47:23;;;;;;;7.30;2.10;;;15.50;54.90;;;;;;5092812;28;20117;-74
2021/03/01 10:49:58;;;;;;;6.65;2.15;;;15.50;55.10;;;;;;5080742;28;20103;-74
2021/03/01 10:52:25;;;;;;;27.33;3.63;;;15.50;54.40;;;;;;5075225;28;20049;-74
2021/03/01 10:54:55;;;;;;;26.30;3.60;;;15.40;53.20;;;;;;5079743;28;20051;-74
2021/03/01 10:57:22;;;;;;;27.23;2.95;;;15.30;53.20;;;;;;5095203;28;20048;-77
2021/03/01 10:59:51;;;;;;;11.27;2.45;;;15.20;54.10;;;;;;5094671;28;20036;-76
2021/03/01 11:02:17;;;;;;;12.30;2.40;;;15.20;55.90;;;;;;5094711;28;20047;-76
2021/03/01 11:04:43;;;;;;;8.00;2.58;;;15.30;60.20;;;;;;5094935;28;20044;-75
2021/03/01 11:07:09;;;;;;;17.50;4.40;;;15.40;62.10;;;;;;5095218;28;20044;-75
2021/03/01 11:09:35;;;;;;;15.60;4.35;;;15.40;61.00;;;;;;5095140;28;20532;-76
2021/03/01 11:12:03;;;;;;;17.70;4.28;;;15.30;61.40;;;;;;5075553;28;20070;-79
2021/03/01 11:14:29;;;;;;;23.35;6.28;;;15.30;62.40;;;;;;5088452;28;20051;-75
2021/03/01 11:16:55;;;;;;;13.60;4.65;;;15.20;62.30;;;;;;5076761;28;20365;-77
2021/03/01 11:19:21;;;;;;;7.75;3.78;;;15.20;61.30;;;;;;5086571;28;20044;-77
2021/03/01 11:21:48;;;;;;;16.13;4.78;;;15.10;60.10;;;;;;5094519;28;20070;-75
2021/03/01 11:24:14;;;;;;;18.10;4.10;;;14.90;60.00;;;;;;5093264;28;20048;-76
2021/03/01 11:26:40;;;;;;;10.93;3.15;;;14.90;60.30;;;;;;5094760;28;20463;-76
2021/03/01 11:29:06;;;;;;;11.45;3.33;;;14.90;60.90;;;;;;5094653;28;20047;-76
2021/03/01 11:31:33;;;;;;;11.13;3.63;;;15.00;61.20;;;;;;5094022;28;20036;-76
2021/03/01 11:34:00;;;;;;;9.45;2.97;;;15.00;61.20;;;;;;5088728;28;20574;-77
2021/03/01 11:36:26;;;;;;;5.60;2.58;;;15.00;61.20;;;;;;5092309;28;20035;-76
2021/03/01 11:38:52;;;;;;;18.45;3.83;;;15.10;61.20;;;;;;5080477;28;20367;-76
2021/03/01 11:41:18;;;;;;;11.70;2.58;;;15.10;60.90;;;;;;5077388;28;20048;-77
2021/03/01 11:43:44;;;;;;;10.35;2.90;;;15.20;60.70;;;;;;5078359;28;20050;-76
2021/03/01 11:46:10;;;;;;;13.23;3.13;;;15.20;60.50;;;;;;5075872;28;20105;-78
2021/03/01 11:48:37;;;;;;;6.72;2.40;;;15.20;60.40;;;;;;5083395;28;20048;-78
2021/03/01 11:51:04;;;;;;;4.13;2.00;;;15.20;60.40;;;;;;5078983;28;20084;-79
2021/03/01 11:53:30;;;;;;;9.25;2.35;;;15.30;60.20;;;;;;5075946;28;20079;-76
2021/03/01 11:55:56;;;;;;;5.18;2.15;;;15.30;60.00;;;;;;5086646;28;20036;-76
2021/03/01 11:58:22;;;;;;;5.03;2.28;;;15.30;59.80;;;;;;5098376;28;20415;-76
2021/03/01 12:00:48;;;;;;;5.53;2.33;;;15.30;59.90;;;;;;5094298;28;20044;-76
2021/03/01 12:03:14;;;;;;;8.55;2.75;;;15.30;59.50;;;;;;5079322;28;20109;-76
2021/03/01 12:05:41;;;;;;;9.95;2.70;;;15.30;59.80;;;;;;5077570;28;20460;-76
2021/03/01 12:08:08;;;;;;;9.70;2.50;;;15.30;59.80;;;;;;5080210;28;20036;-78
2021/03/01 12:10:35;;;;;;;5.05;2.78;;;15.30;58.70;;;;;;5103184;28;20046;-77
2021/03/01 12:13:02;;;;;;;9.65;3.53;;;15.20;58.00;;;;;;5102617;28;20048;-75
2021/03/01 12:15:29;;;;;;;7.65;2.95;;;15.10;57.70;;;;;;5097435;28;20044;-75
2021/03/01 12:17:56;;;;;;;8.82;3.13;;;15.10;56.40;;;;;;5106664;28;20083;-75
2021/03/01 12:20:22;;;;;;;7.10;2.95;;;14.90;56.20;;;;;;5115413;28;20039;-76
2021/03/01 12:22:49;;;;;;;5.07;2.38;;;14.90;56.20;;;;;;5098361;28;20051;-75
2021/03/01 12:25:15;;;;;;;5.80;2.55;;;14.80;56.10;;;;;;5097787;28;20126;-77
2021/03/01 12:27:41;;;;;;;4.30;2.65;;;14.80;56.00;;;;;;5097763;28;20071;-76
2021/03/01 12:30:07;;;;;;;4.38;2.55;;;14.70;55.90;;;;;;5077760;28;20103;-77
2021/03/01 12:32:34;;;;;;;6.15;2.70;;;14.70;55.80;;;;;;5092162;28;20036;-77
2021/03/01 12:35:01;;;;;;;7.90;2.80;;;14.60;56.20;;;;;;5097766;28;20040;-76
2021/03/01 12:37:28;;;;;;;7.28;3.03;;;14.60;56.60;;;;;;5097768;28;20043;-76
2021/03/01 12:39:54;;;;;;;8.52;3.13;;;14.60;56.90;;;;;;5097361;28;20396;-75
2021/03/01 12:42:20;;;;;;;7.85;3.50;;;14.70;57.20;;;;;;5078163;28;20090;-75
2021/03/01 12:44:46;;;;;;;9.95;3.50;;;14.70;57.40;;;;;;5077337;28;20090;-76
2021/03/01 12:47:12;;;;;;;10.25;3.65;;;14.80;57.60;;;;;;5077455;28;20049;-75
2021/03/01 12:49:38;;;;;;;6.22;3.22;;;14.80;57.50;;;;;;5076234;28;20048;-76
2021/03/01 12:52:04;;;;;;;5.45;3.53;;;14.80;57.40;;;;;;5076891;28;20048;-75
2021/03/01 12:54:31;;;;;;;8.20;3.22;;;14.90;57.30;;;;;;5076806;28;20350;-74